createdAt,value
2018-12-15T00:00:03.350Z,-2.32
2018-12-15T00:01:11.407Z,-2.34
2018-12-15T00:02:19.433Z,-2.35
2018-12-15T00:03:27.505Z,-2.29
2018-12-15T00:04:35.537Z,-2.37
2018-12-15T00:05:43.610Z,-2.30
2018-12-15T00:06:51.655Z,-2.27
2018-12-15T00:07:59.705Z,-2.34
2018-12-15T00:09:07.749Z,-2.29
2018-12-15T00:10:15.809Z,-2.32
2018-12-15T00:11:23.866Z,-2.40
2018-12-15T00:12:31.910Z,-2.32
2018-12-15T00:13:39.954Z,-2.30
2018-12-15T00:14:48.010Z,-2.32
2018-12-15T00:15:56.042Z,-2.32
2018-12-15T00:17:05.765Z,-2.43
2018-12-15T00:18:12.190Z,-2.50
2018-12-15T00:19:20.203Z,-2.50
2018-12-15T00:20:28.296Z,-2.34
2018-12-15T00:21:36.320Z,-2.39
2018-12-15T00:22:44.371Z,-2.42
2018-12-15T00:23:52.420Z,-2.32
2018-12-15T00:25:00.481Z,-2.37
2018-12-15T00:26:08.532Z,-2.30
2018-12-15T00:27:16.575Z,-2.29
2018-12-15T00:28:24.630Z,-2.40
2018-12-15T00:29:32.678Z,-2.46
2018-12-15T00:30:40.737Z,-2.49
2018-12-15T00:31:48.775Z,-2.52
2018-12-15T00:32:56.831Z,-2.50
2018-12-15T00:34:04.881Z,-2.46
2018-12-15T00:35:12.951Z,-2.45
2018-12-15T00:36:20.998Z,-2.40
2018-12-15T00:37:29.050Z,-2.32
2018-12-15T00:38:37.104Z,-2.42
2018-12-15T00:39:45.134Z,-2.39
2018-12-15T00:40:53.200Z,-2.35
2018-12-15T00:42:01.262Z,-2.29
2018-12-15T00:43:09.301Z,-2.39
2018-12-15T00:44:17.357Z,-2.37
2018-12-15T00:45:25.397Z,-2.42
2018-12-15T00:46:33.487Z,-2.34
2018-12-15T00:47:41.513Z,-2.37
2018-12-15T00:48:49.569Z,-2.40
2018-12-15T00:49:57.618Z,-2.34
2018-12-15T00:51:05.669Z,-2.37
2018-12-15T00:52:13.719Z,-2.30
2018-12-15T00:53:21.772Z,-2.34
2018-12-15T00:54:29.824Z,-2.32
2018-12-15T00:55:37.884Z,-2.23
2018-12-15T00:56:45.934Z,-2.21
2018-12-15T00:57:53.992Z,-2.34
2018-12-15T00:59:02.042Z,-2.24
2018-12-15T01:00:10.084Z,-2.18
2018-12-15T01:01:18.142Z,-2.10
2018-12-15T01:02:26.193Z,-2.18
2018-12-15T01:03:34.238Z,-2.12
2018-12-15T01:04:42.289Z,-2.18
2018-12-15T01:05:50.352Z,-2.08
2018-12-15T01:06:58.392Z,-2.06
2018-12-15T01:08:06.458Z,-2.12
2018-12-15T01:09:14.480Z,-1.98
2018-12-15T01:10:22.556Z,-1.97
2018-12-15T01:11:30.600Z,-2.08
2018-12-15T01:12:38.659Z,-2.08
2018-12-15T01:13:46.703Z,-2.05
2018-12-15T01:14:54.764Z,-2.03
2018-12-15T01:16:02.819Z,-2.29
2018-12-15T01:17:10.859Z,-2.29
2018-12-15T01:18:18.916Z,-2.37
2018-12-15T01:19:26.951Z,-2.37
2018-12-15T01:20:35.023Z,-2.30
2018-12-15T01:21:43.068Z,-2.24
2018-12-15T01:22:51.112Z,-2.23
2018-12-15T01:23:59.154Z,-2.29
2018-12-15T01:25:07.231Z,-2.30
2018-12-15T01:26:15.274Z,-2.30
2018-12-15T01:27:23.320Z,-2.27
2018-12-15T01:28:31.392Z,-2.29
2018-12-15T01:29:39.427Z,-2.21
2018-12-15T01:30:47.486Z,-2.29
2018-12-15T01:31:55.531Z,-2.20
2018-12-15T01:33:03.606Z,-2.24
2018-12-15T01:34:11.647Z,-2.26
2018-12-15T01:35:19.703Z,-2.34
2018-12-15T01:36:27.745Z,-2.32
2018-12-15T01:37:35.781Z,-2.35
2018-12-15T01:38:43.852Z,-2.24
2018-12-15T01:39:51.892Z,-2.29
2018-12-15T01:40:59.957Z,-2.34
2018-12-15T01:42:08.000Z,-2.34
2018-12-15T01:43:16.073Z,-2.29
2018-12-15T01:44:24.105Z,-2.26
2018-12-15T01:45:32.261Z,-2.27
2018-12-15T01:46:40.213Z,-2.24
2018-12-15T01:47:48.257Z,-2.24
2018-12-15T01:48:56.335Z,-2.29
2018-12-15T01:50:04.362Z,-2.23
2018-12-15T01:51:12.442Z,-2.24
2018-12-15T01:52:20.455Z,-2.29
2018-12-15T01:53:28.523Z,-2.37
2018-12-15T01:54:36.619Z,-2.53
2018-12-15T01:55:44.646Z,-2.63
2018-12-15T01:56:52.666Z,-2.49
2018-12-15T01:58:00.730Z,-2.52
2018-12-15T01:59:08.783Z,-2.42
2018-12-15T02:00:16.826Z,-2.46
2018-12-15T02:01:24.886Z,-2.37
2018-12-15T02:02:32.949Z,-2.37
2018-12-15T02:03:40.998Z,-2.35
2018-12-15T02:04:49.035Z,-2.37
2018-12-15T02:05:57.059Z,-2.32
2018-12-15T02:07:05.153Z,-2.27
2018-12-15T02:08:13.201Z,-2.35
2018-12-15T02:09:21.242Z,-2.30
2018-12-15T02:10:29.295Z,-2.26
2018-12-15T02:11:37.361Z,-2.27
2018-12-15T02:12:45.408Z,-2.27
2018-12-15T02:13:53.449Z,-2.26
2018-12-15T02:15:01.511Z,-2.23
2018-12-15T02:16:09.559Z,-2.24
2018-12-15T02:17:17.637Z,-2.27
2018-12-15T02:18:25.643Z,-2.26
2018-12-15T02:19:33.712Z,-2.32
2018-12-15T02:20:41.751Z,-2.32
2018-12-15T02:21:49.802Z,-2.27
2018-12-15T02:22:57.852Z,-2.37
2018-12-15T02:24:05.898Z,-2.32
2018-12-15T02:25:13.960Z,-2.37
2018-12-15T02:26:22.025Z,-2.35
2018-12-15T02:27:30.086Z,-2.43
2018-12-15T02:28:38.122Z,-2.39
2018-12-15T02:29:46.174Z,-2.53
2018-12-15T02:30:54.211Z,-2.53
2018-12-15T02:32:02.291Z,-2.50
2018-12-15T02:33:10.343Z,-2.49
2018-12-15T02:34:18.367Z,-2.66
2018-12-15T02:35:26.438Z,-2.46
2018-12-15T02:36:34.498Z,-2.48
2018-12-15T02:37:42.533Z,-2.50
2018-12-15T02:38:50.593Z,-2.48
2018-12-15T02:39:58.638Z,-2.42
2018-12-15T02:41:06.684Z,-2.42
2018-12-15T02:42:14.760Z,-2.37
2018-12-15T02:43:22.783Z,-2.32
2018-12-15T02:44:30.856Z,-2.34
2018-12-15T02:45:38.896Z,-2.29
2018-12-15T02:46:46.960Z,-2.27
2018-12-15T02:47:55.003Z,-2.26
2018-12-15T02:49:03.049Z,-2.30
2018-12-15T02:50:11.940Z,-2.34
2018-12-15T02:51:19.166Z,-2.26
2018-12-15T02:52:27.218Z,-2.37
2018-12-15T02:53:35.255Z,-2.40
2018-12-15T02:54:43.304Z,-2.49
2018-12-15T02:55:51.361Z,-2.39
2018-12-15T02:56:59.407Z,-2.37
2018-12-15T02:58:07.473Z,-2.37
2018-12-15T02:59:15.507Z,-2.32
2018-12-15T03:00:23.577Z,-2.45
2018-12-15T03:01:31.697Z,-2.53
2018-12-15T03:02:39.679Z,-2.63
2018-12-15T03:03:47.711Z,-2.60
2018-12-15T03:04:55.762Z,-2.63
2018-12-15T03:06:03.836Z,-2.58
2018-12-15T03:07:11.875Z,-2.55
2018-12-15T03:08:19.928Z,-2.53
2018-12-15T03:09:28.039Z,-2.52
2018-12-15T03:10:36.030Z,-2.49
2018-12-15T03:11:44.096Z,-2.49
2018-12-15T03:12:52.140Z,-2.55
2018-12-15T03:14:00.204Z,-2.56
2018-12-15T03:15:08.244Z,-2.53
2018-12-15T03:16:16.273Z,-2.53
2018-12-15T03:17:24.333Z,-2.55
2018-12-15T03:18:32.398Z,-2.56
2018-12-15T03:19:40.456Z,-2.55
2018-12-15T03:20:48.493Z,-2.52
2018-12-15T03:21:56.558Z,-2.52
2018-12-15T03:23:04.587Z,-2.52
2018-12-15T03:24:12.661Z,-2.52
2018-12-15T03:25:20.682Z,-2.53
2018-12-15T03:26:28.761Z,-2.49
2018-12-15T03:27:36.800Z,-2.53
2018-12-15T03:28:44.865Z,-2.49
2018-12-15T03:29:52.905Z,-2.64
2018-12-15T03:31:00.960Z,-2.49
2018-12-15T03:32:09.001Z,-2.52
2018-12-15T03:33:17.060Z,-2.48
2018-12-15T03:34:25.112Z,-2.60
2018-12-15T03:35:33.174Z,-2.61
2018-12-15T03:36:41.230Z,-2.58
2018-12-15T03:37:49.266Z,-2.61
2018-12-15T03:38:57.332Z,-2.56
2018-12-15T03:40:05.353Z,-2.49
2018-12-15T03:41:13.433Z,-2.48
2018-12-15T03:42:21.469Z,-2.48
2018-12-15T03:43:29.517Z,-2.39
2018-12-15T03:44:37.579Z,-2.45
2018-12-15T03:45:45.633Z,-2.42
2018-12-15T03:46:53.682Z,-2.42
2018-12-15T03:48:01.746Z,-2.50
2018-12-15T03:49:09.793Z,-2.43
2018-12-15T03:50:17.833Z,-2.43
2018-12-15T03:51:25.896Z,-2.46
2018-12-15T03:52:33.978Z,-2.53
2018-12-15T03:53:41.981Z,-2.61
2018-12-15T03:54:50.048Z,-2.67
2018-12-15T03:55:58.094Z,-2.67
2018-12-15T03:57:06.167Z,-2.66
2018-12-15T03:58:14.222Z,-2.56
2018-12-15T03:59:22.249Z,-2.61
2018-12-15T04:00:30.324Z,-2.71
2018-12-15T04:01:38.375Z,-2.79
2018-12-15T04:02:46.412Z,-2.74
2018-12-15T04:03:54.459Z,-2.73
2018-12-15T04:05:02.531Z,-2.67
2018-12-15T04:06:10.575Z,-2.74
2018-12-15T04:07:18.624Z,-2.63
2018-12-15T04:08:26.641Z,-2.70
2018-12-15T04:09:34.723Z,-2.68
2018-12-15T04:10:42.773Z,-2.67
2018-12-15T04:11:50.830Z,-2.73
2018-12-15T04:12:58.854Z,-2.58
2018-12-15T04:14:06.912Z,-2.64
2018-12-15T04:15:15.018Z,-2.55
2018-12-15T04:16:23.029Z,-2.53
2018-12-15T04:17:31.077Z,-2.53
2018-12-15T04:18:39.116Z,-2.48
2018-12-15T04:19:47.165Z,-2.53
2018-12-15T04:20:55.242Z,-2.55
2018-12-15T04:22:03.276Z,-2.56
2018-12-15T04:23:11.340Z,-2.64
2018-12-15T04:24:19.398Z,-2.55
2018-12-15T04:25:27.435Z,-2.50
2018-12-15T04:26:35.462Z,-2.53
2018-12-15T04:27:43.546Z,-2.56
2018-12-15T04:28:51.699Z,-2.46
2018-12-15T04:29:59.647Z,-2.52
2018-12-15T04:31:07.694Z,-2.67
2018-12-15T04:32:15.735Z,-2.64
2018-12-15T04:33:23.857Z,-2.85
2018-12-15T04:34:31.841Z,-2.81
2018-12-15T04:35:39.940Z,-2.71
2018-12-15T04:36:47.954Z,-2.77
2018-12-15T04:37:56.011Z,-2.70
2018-12-15T04:39:04.066Z,-2.67
2018-12-15T04:40:12.102Z,-2.64
2018-12-15T04:41:20.154Z,-2.56
2018-12-15T04:42:28.249Z,-2.56
2018-12-15T04:43:36.283Z,-2.50
2018-12-15T04:44:44.317Z,-2.56
2018-12-15T04:45:52.348Z,-2.56
2018-12-15T04:47:00.455Z,-2.52
2018-12-15T04:48:11.227Z,-2.53
2018-12-15T04:49:16.540Z,-2.49
2018-12-15T04:50:24.573Z,-2.56
2018-12-15T04:51:32.623Z,-2.50
2018-12-15T04:52:40.673Z,-2.50
2018-12-15T04:53:48.740Z,-2.45
2018-12-15T04:54:56.777Z,-2.40
2018-12-15T04:56:04.828Z,-2.39
2018-12-15T04:57:12.905Z,-2.49
2018-12-15T04:58:20.938Z,-2.43
2018-12-15T04:59:29.004Z,-2.42
2018-12-15T05:00:37.038Z,-2.46
2018-12-15T05:01:45.082Z,-2.39
2018-12-15T05:02:53.165Z,-2.49
2018-12-15T05:04:01.212Z,-2.42
2018-12-15T05:05:09.260Z,-2.45
2018-12-15T05:06:17.314Z,-2.39
2018-12-15T05:07:25.397Z,-2.37
2018-12-15T05:08:33.428Z,-2.37
2018-12-15T05:09:41.467Z,-2.37
2018-12-15T05:10:49.494Z,-2.40
2018-12-15T05:11:57.558Z,-2.50
2018-12-15T05:13:05.612Z,-2.52
2018-12-15T05:14:13.675Z,-2.58
2018-12-15T05:15:21.717Z,-2.64
2018-12-15T05:16:29.771Z,-2.53
2018-12-15T05:17:37.836Z,-2.52
2018-12-15T05:18:45.888Z,-2.52
2018-12-15T05:19:53.918Z,-2.46
2018-12-15T05:21:01.969Z,-2.56
2018-12-15T05:22:10.028Z,-2.52
2018-12-15T05:23:18.087Z,-2.53
2018-12-15T05:24:26.114Z,-2.60
2018-12-15T05:25:34.172Z,-2.63
2018-12-15T05:26:42.227Z,-2.49
2018-12-15T05:27:50.298Z,-2.49
2018-12-15T05:28:58.321Z,-2.61
2018-12-15T05:30:06.383Z,-2.60
2018-12-15T05:31:14.427Z,-2.56
2018-12-15T05:32:22.497Z,-2.53
2018-12-15T05:33:30.552Z,-2.60
2018-12-15T05:34:38.599Z,-2.60
2018-12-15T05:35:46.654Z,-2.66
2018-12-15T05:36:54.685Z,-2.66
2018-12-15T05:38:02.744Z,-2.64
2018-12-15T05:39:10.793Z,-2.64
2018-12-15T05:40:18.856Z,-2.70
2018-12-15T05:41:26.902Z,-2.58
2018-12-15T05:42:34.942Z,-2.66
2018-12-15T05:43:43.002Z,-2.66
2018-12-15T05:44:51.061Z,-2.63
2018-12-15T05:45:59.108Z,-2.56
2018-12-15T05:47:07.158Z,-2.53
2018-12-15T05:48:15.205Z,-2.56
2018-12-15T05:49:23.261Z,-2.61
2018-12-15T05:50:31.324Z,-2.53
2018-12-15T05:51:39.366Z,-2.63
2018-12-15T05:52:47.408Z,-2.53
2018-12-15T05:53:55.470Z,-2.49
2018-12-15T05:55:03.527Z,-2.60
2018-12-15T05:56:11.567Z,-2.61
2018-12-15T05:57:19.619Z,-2.61
2018-12-15T05:58:27.671Z,-2.61
2018-12-15T05:59:35.694Z,-2.61
2018-12-15T06:00:43.777Z,-2.52
2018-12-15T06:01:51.831Z,-2.55
2018-12-15T06:02:59.919Z,-2.45
2018-12-15T06:04:07.911Z,-2.63
2018-12-15T06:05:15.985Z,-2.50
2018-12-15T06:06:24.036Z,-2.49
2018-12-15T06:07:32.079Z,-2.55
2018-12-15T06:08:40.145Z,-2.49
2018-12-15T06:09:48.223Z,-2.46
2018-12-15T06:10:56.243Z,-2.48
2018-12-15T06:12:04.282Z,-2.46
2018-12-15T06:13:12.347Z,-2.52
2018-12-15T06:14:20.404Z,-2.53
2018-12-15T06:15:28.443Z,-2.58
2018-12-15T06:16:36.496Z,-2.53
2018-12-15T06:17:44.544Z,-2.64
2018-12-15T06:18:52.604Z,-2.58
2018-12-15T06:20:00.653Z,-2.53
2018-12-15T06:21:08.704Z,-2.50
2018-12-15T06:22:16.752Z,-2.60
2018-12-15T06:23:24.803Z,-2.52
2018-12-15T06:24:32.841Z,-2.56
2018-12-15T06:25:40.923Z,-2.49
2018-12-15T06:26:48.960Z,-2.53
2018-12-15T06:27:57.051Z,-2.52
2018-12-15T06:29:05.090Z,-2.49
2018-12-15T06:30:13.146Z,-2.48
2018-12-15T06:31:21.166Z,-2.48
2018-12-15T06:32:29.215Z,-2.43
2018-12-15T06:33:37.305Z,-2.40
2018-12-15T06:34:45.318Z,-2.40
2018-12-15T06:35:53.371Z,-2.37
2018-12-15T06:37:01.445Z,-2.42
2018-12-15T06:38:09.504Z,-2.43
2018-12-15T06:39:17.548Z,-2.48
2018-12-15T06:40:25.565Z,-2.29
2018-12-15T06:41:33.605Z,-2.45
2018-12-15T06:42:41.690Z,-2.39
2018-12-15T06:43:49.732Z,-2.49
2018-12-15T06:44:57.801Z,-2.43
2018-12-15T06:46:05.840Z,-2.45
2018-12-15T06:47:13.889Z,-2.43
2018-12-15T06:48:21.943Z,-2.43
2018-12-15T06:49:29.998Z,-2.42
2018-12-15T06:50:38.033Z,-2.45
2018-12-15T06:51:46.089Z,-2.45
2018-12-15T06:52:54.157Z,-2.49
2018-12-15T06:54:02.201Z,-2.63
2018-12-15T06:55:10.261Z,-2.66
2018-12-15T06:56:18.296Z,-2.77
2018-12-15T06:57:26.362Z,-2.71
2018-12-15T06:58:34.405Z,-2.74
2018-12-15T06:59:42.457Z,-2.77
2018-12-15T07:00:50.505Z,-2.81
2018-12-15T07:01:58.571Z,-2.86
2018-12-15T07:03:06.620Z,-2.79
2018-12-15T07:04:14.673Z,-2.79
2018-12-15T07:05:22.713Z,-2.79
2018-12-15T07:06:30.769Z,-2.85
2018-12-15T07:07:38.822Z,-2.82
2018-12-15T07:08:46.863Z,-2.79
2018-12-15T07:09:54.927Z,-2.82
2018-12-15T07:11:02.980Z,-2.78
2018-12-15T07:12:10.997Z,-2.82
2018-12-15T07:13:19.063Z,-2.82
2018-12-15T07:14:28.096Z,-2.78
2018-12-15T07:15:35.174Z,-2.84
2018-12-15T07:16:43.223Z,-2.81
2018-12-15T07:17:51.283Z,-2.85
2018-12-15T07:18:59.344Z,-2.84
2018-12-15T07:20:07.358Z,-2.79
2018-12-15T07:21:15.427Z,-2.79
2018-12-15T07:22:23.492Z,-2.79
2018-12-15T07:23:31.725Z,-2.78
2018-12-15T07:24:39.588Z,-2.81
2018-12-15T07:25:47.644Z,-2.79
2018-12-15T07:26:55.674Z,-2.82
2018-12-15T07:28:03.745Z,-2.86
2018-12-15T07:29:11.795Z,-2.71
2018-12-15T07:30:19.846Z,-2.77
2018-12-15T07:31:27.883Z,-2.79
2018-12-15T07:32:35.943Z,-2.81
2018-12-15T07:33:43.986Z,-2.97
2018-12-15T07:34:52.077Z,-2.86
2018-12-15T07:36:00.100Z,-2.88
2018-12-15T07:37:08.158Z,-2.79
2018-12-15T07:38:16.205Z,-2.74
2018-12-15T07:39:24.270Z,-2.60
2018-12-15T07:40:32.328Z,-2.58
2018-12-15T07:41:40.366Z,-2.56
2018-12-15T07:42:48.442Z,-2.63
2018-12-15T07:43:56.787Z,-2.63
2018-12-15T07:45:04.527Z,-2.63
2018-12-15T07:46:12.570Z,-2.70
2018-12-15T07:47:20.615Z,-2.77
2018-12-15T07:48:28.661Z,-2.68
2018-12-15T07:49:36.704Z,-2.68
2018-12-15T07:50:44.777Z,-2.73
2018-12-15T07:51:52.813Z,-2.73
2018-12-15T07:53:00.871Z,-2.66
2018-12-15T07:54:08.943Z,-2.67
2018-12-15T07:55:16.976Z,-2.77
2018-12-15T07:56:25.066Z,-2.73
2018-12-15T07:57:33.090Z,-2.74
2018-12-15T07:58:41.143Z,-2.77
2018-12-15T07:59:49.184Z,-2.70
2018-12-15T08:00:57.229Z,-2.74
2018-12-15T08:02:05.618Z,-2.67
2018-12-15T08:03:13.344Z,-2.73
2018-12-15T08:04:21.391Z,-2.74
2018-12-15T08:05:29.464Z,-2.73
2018-12-15T08:06:37.500Z,-2.71
2018-12-15T08:07:45.638Z,-2.73
2018-12-15T08:08:53.734Z,-2.58
2018-12-15T08:10:01.647Z,-2.52
2018-12-15T08:11:09.696Z,-2.53
2018-12-15T08:12:17.747Z,-2.61
2018-12-15T08:13:25.812Z,-2.70
2018-12-15T08:14:33.859Z,-2.79
2018-12-15T08:15:41.904Z,-2.67
2018-12-15T08:16:49.947Z,-2.66
2018-12-15T08:17:57.995Z,-2.58
2018-12-15T08:19:06.322Z,-2.61
2018-12-15T08:20:14.086Z,-2.53
2018-12-15T08:21:22.654Z,-2.61
2018-12-15T08:22:30.231Z,-2.66
2018-12-15T08:23:38.432Z,-2.68
2018-12-15T08:24:46.312Z,-2.66
2018-12-15T08:25:54.381Z,-2.58
2018-12-15T08:27:02.413Z,-2.50
2018-12-15T08:28:10.715Z,-2.60
2018-12-15T08:29:18.519Z,-2.56
2018-12-15T08:30:26.548Z,-2.64
2018-12-15T08:31:34.652Z,-2.63
2018-12-15T08:32:42.665Z,-2.56
2018-12-15T08:33:50.727Z,-2.50
2018-12-15T08:34:58.781Z,-2.49
2018-12-15T08:36:06.832Z,-2.42
2018-12-15T08:37:14.879Z,-2.46
2018-12-15T08:38:22.921Z,-2.39
2018-12-15T08:39:30.983Z,-2.26
2018-12-15T08:40:39.034Z,-2.27
2018-12-15T08:41:47.114Z,-2.24
2018-12-15T08:42:55.108Z,-2.23
2018-12-15T08:44:03.192Z,-2.27
2018-12-15T08:45:11.242Z,-2.26
2018-12-15T08:46:19.293Z,-2.37
2018-12-15T08:47:27.346Z,-2.21
2018-12-15T08:48:35.398Z,-2.23
2018-12-15T08:49:43.445Z,-2.16
2018-12-15T08:50:51.523Z,-2.18
2018-12-15T08:51:59.566Z,-2.20
2018-12-15T08:53:07.599Z,-2.26
2018-12-15T08:54:15.652Z,-2.32
2018-12-15T08:55:23.735Z,-2.18
2018-12-15T08:56:31.767Z,-2.20
2018-12-15T08:57:39.831Z,-2.26
2018-12-15T08:58:47.868Z,-2.29
2018-12-15T08:59:56.466Z,-2.16
2018-12-15T09:01:03.969Z,-2.15
2018-12-15T09:02:12.016Z,-2.13
2018-12-15T09:03:20.093Z,-2.05
2018-12-15T09:04:28.119Z,-2.05
2018-12-15T09:05:36.196Z,-2.05
2018-12-15T09:06:44.255Z,-1.97
2018-12-15T09:07:52.332Z,-1.92
2018-12-15T09:09:00.371Z,-1.97
2018-12-15T09:10:08.820Z,-2.13
2018-12-15T09:11:16.456Z,-2.15
2018-12-15T09:12:24.519Z,-2.12
2018-12-15T09:13:32.548Z,-2.12
2018-12-15T09:14:40.605Z,-2.05
2018-12-15T09:15:48.737Z,-2.08
2018-12-15T09:16:56.712Z,-2.18
2018-12-15T09:18:04.738Z,-2.20
2018-12-15T09:19:12.805Z,-2.18
2018-12-15T09:20:20.862Z,-2.20
2018-12-15T09:21:28.906Z,-2.05
2018-12-15T09:22:37.015Z,-2.12
2018-12-15T09:23:45.463Z,-1.95
2018-12-15T09:24:53.067Z,-1.92
2018-12-15T09:26:01.119Z,-1.97
2018-12-15T09:27:09.189Z,-1.77
2018-12-15T09:28:17.225Z,-1.85
2018-12-15T09:29:25.278Z,-1.92
2018-12-15T09:30:33.345Z,-1.94
2018-12-15T09:31:41.403Z,-1.92
2018-12-15T09:32:49.419Z,-1.85
2018-12-15T09:33:57.518Z,-1.95
2018-12-15T09:35:05.539Z,-1.94
2018-12-15T09:36:13.594Z,-1.97
2018-12-15T09:37:21.631Z,-1.95
2018-12-15T09:38:29.697Z,-1.97
2018-12-15T09:39:37.772Z,-1.97
2018-12-15T09:40:45.787Z,-1.90
2018-12-15T09:41:53.849Z,-1.82
2018-12-15T09:43:01.917Z,-1.82
2018-12-15T09:44:09.967Z,-1.76
2018-12-15T09:45:18.022Z,-1.70
2018-12-15T09:46:26.070Z,-1.72
2018-12-15T09:47:34.108Z,-1.66
2018-12-15T09:48:42.183Z,-1.55
2018-12-15T09:49:50.209Z,-1.48
2018-12-15T09:50:58.293Z,-1.41
2018-12-15T09:52:06.327Z,-1.38
2018-12-15T09:53:14.387Z,-1.38
2018-12-15T09:54:22.435Z,-1.30
2018-12-15T09:55:30.511Z,-1.27
2018-12-15T09:56:38.532Z,-1.19
2018-12-15T09:57:46.615Z,-1.10
2018-12-15T09:58:54.644Z,-1.30
2018-12-15T10:00:02.711Z,-1.37
2018-12-15T10:01:10.779Z,-1.46
2018-12-15T10:02:18.841Z,-1.49
2018-12-15T10:03:26.845Z,-1.43
2018-12-15T10:04:34.904Z,-1.49
2018-12-15T10:05:42.966Z,-1.43
2018-12-15T10:06:51.148Z,-1.38
2018-12-15T10:07:59.080Z,-1.37
2018-12-15T10:09:07.127Z,-1.20
2018-12-15T10:10:15.190Z,-1.12
2018-12-15T10:11:23.247Z,-1.05
2018-12-15T10:12:31.305Z,-1.10
2018-12-15T10:13:39.349Z,-1.01
2018-12-15T10:14:47.381Z,-1.16
2018-12-15T10:15:55.432Z,-1.12
2018-12-15T10:17:03.495Z,-1.05
2018-12-15T10:18:11.550Z,-0.95
2018-12-15T10:19:24.167Z,-0.95
2018-12-15T10:20:27.650Z,-0.94
2018-12-15T10:21:35.690Z,-1.22
2018-12-15T10:22:43.757Z,-1.40
2018-12-15T10:23:51.811Z,-1.56
2018-12-15T10:24:59.861Z,-1.62
2018-12-15T10:26:07.910Z,-1.72
2018-12-15T10:27:15.996Z,-1.61
2018-12-15T10:28:24.053Z,-1.51
2018-12-15T10:29:32.117Z,-1.37
2018-12-15T10:30:40.148Z,-1.31
2018-12-15T10:31:48.168Z,-1.33
2018-12-15T10:32:56.257Z,-1.17
2018-12-15T10:34:04.306Z,-1.15
2018-12-15T10:35:12.345Z,-1.02
2018-12-15T10:36:20.414Z,-0.98
2018-12-15T10:37:28.455Z,-1.01
2018-12-15T10:38:36.514Z,-0.98
2018-12-15T10:39:44.543Z,-1.07
2018-12-15T10:40:52.637Z,-1.16
2018-12-15T10:42:01.206Z,-1.38
2018-12-15T10:43:08.730Z,-1.34
2018-12-15T10:44:16.803Z,-1.46
2018-12-15T10:45:25.059Z,-1.33
2018-12-15T10:46:33.517Z,-1.30
2018-12-15T10:47:40.947Z,-1.27
2018-12-15T10:48:48.998Z,-1.25
2018-12-15T10:49:57.033Z,-1.15
2018-12-15T10:51:05.076Z,-1.07
2018-12-15T10:52:13.146Z,-1.02
2018-12-15T10:53:21.209Z,-0.92
2018-12-15T10:54:29.252Z,-0.82
2018-12-15T10:55:37.283Z,-0.83
2018-12-15T10:56:45.353Z,-0.70
2018-12-15T10:57:53.416Z,-0.92
2018-12-15T10:59:01.462Z,-0.85
2018-12-15T11:00:09.919Z,-0.83
2018-12-15T11:01:17.591Z,-0.76
2018-12-15T11:02:25.618Z,-0.65
2018-12-15T11:03:33.680Z,-0.67
2018-12-15T11:04:41.711Z,-0.91
2018-12-15T11:05:49.767Z,-0.94
2018-12-15T11:06:57.840Z,-0.80
2018-12-15T11:08:05.868Z,-0.94
2018-12-15T11:09:13.967Z,-0.95
2018-12-15T11:10:22.004Z,-0.94
2018-12-15T11:11:30.057Z,-0.98
2018-12-15T11:12:38.677Z,-1.02
2018-12-15T11:13:46.143Z,-0.94
2018-12-15T11:14:54.217Z,-1.13
2018-12-15T11:16:02.286Z,-1.16
2018-12-15T11:17:10.297Z,-1.16
2018-12-15T11:18:18.377Z,-1.22
2018-12-15T11:19:26.404Z,-1.38
2018-12-15T11:20:34.471Z,-1.22
2018-12-15T11:21:42.528Z,-1.33
2018-12-15T11:22:50.598Z,-1.33
2018-12-15T11:23:58.648Z,-1.27
2018-12-15T11:25:06.696Z,-1.12
2018-12-15T11:26:14.730Z,-1.05
2018-12-15T11:27:22.798Z,-0.97
2018-12-15T11:28:30.853Z,-0.89
2018-12-15T11:29:38.902Z,-0.76
2018-12-15T11:30:46.964Z,-0.73
2018-12-15T11:31:55.001Z,-0.85
2018-12-15T11:33:03.115Z,-0.82
2018-12-15T11:34:11.117Z,-1.07
2018-12-15T11:35:19.185Z,-1.15
2018-12-15T11:36:27.209Z,-1.31
2018-12-15T11:37:35.298Z,-1.33
2018-12-15T11:38:43.379Z,-1.20
2018-12-15T11:39:51.389Z,-1.12
2018-12-15T11:40:59.436Z,-1.16
2018-12-15T11:42:07.497Z,-1.02
2018-12-15T11:43:15.551Z,-1.04
2018-12-15T11:44:23.612Z,-0.94
2018-12-15T11:45:31.657Z,-0.94
2018-12-15T11:46:39.727Z,-0.89
2018-12-15T11:47:47.765Z,-0.72
2018-12-15T11:48:55.866Z,-0.65
2018-12-15T11:50:03.861Z,-0.55
2018-12-15T11:51:11.919Z,-0.47
2018-12-15T11:52:20.002Z,-0.34
2018-12-15T11:53:28.033Z,-0.26
2018-12-15T11:54:36.076Z,-0.28
2018-12-15T11:55:44.639Z,-0.54
2018-12-15T11:56:52.182Z,-0.52
2018-12-15T11:58:00.256Z,-0.58
2018-12-15T11:59:08.309Z,-0.70
2018-12-15T12:00:16.362Z,-0.69
2018-12-15T12:01:24.418Z,-0.79
2018-12-15T12:02:32.466Z,-0.97
2018-12-15T12:03:41.443Z,-1.04
2018-12-15T12:04:48.572Z,-1.02
2018-12-15T12:05:56.961Z,-1.27
2018-12-15T12:07:04.673Z,-1.20
2018-12-15T12:08:12.738Z,-1.55
2018-12-15T12:09:20.795Z,-1.59
2018-12-15T12:10:28.845Z,-1.59
2018-12-15T12:11:36.929Z,-1.74
2018-12-15T12:12:44.947Z,-1.79
2018-12-15T12:13:52.984Z,-1.91
2018-12-15T12:15:01.061Z,-1.90
2018-12-15T12:16:09.094Z,-1.92
2018-12-15T12:17:17.150Z,-1.85
2018-12-15T12:18:25.643Z,-1.79
2018-12-15T12:19:33.325Z,-1.74
2018-12-15T12:20:41.356Z,-1.77
2018-12-15T12:21:50.020Z,-1.82
2018-12-15T12:22:57.433Z,-1.90
2018-12-15T12:24:05.454Z,-1.97
2018-12-15T12:25:13.748Z,-1.92
2018-12-15T12:26:21.559Z,-1.94
2018-12-15T12:27:29.961Z,-1.97
2018-12-15T12:28:37.690Z,-1.91
2018-12-15T12:29:45.727Z,-1.97
2018-12-15T12:30:53.776Z,-1.80
2018-12-15T12:32:01.853Z,-1.76
2018-12-15T12:33:09.893Z,-1.74
2018-12-15T12:34:18.054Z,-1.70
2018-12-15T12:35:25.992Z,-1.67
2018-12-15T12:36:34.067Z,-1.73
2018-12-15T12:37:42.116Z,-1.67
2018-12-15T12:38:50.129Z,-1.61
2018-12-15T12:39:58.196Z,-1.62
2018-12-15T12:41:06.260Z,-1.56
2018-12-15T12:42:14.318Z,-1.43
2018-12-15T12:43:22.373Z,-1.35
2018-12-15T12:44:30.411Z,-1.30
2018-12-15T12:45:38.523Z,-1.25
2018-12-15T12:46:46.526Z,-1.23
2018-12-15T12:47:54.578Z,-1.16
2018-12-15T12:49:02.711Z,-1.41
2018-12-15T12:50:10.946Z,-1.28
2018-12-15T12:51:19.008Z,-1.22
2018-12-15T12:52:26.793Z,-1.34
2018-12-15T12:53:35.082Z,-1.09
2018-12-15T12:54:42.885Z,-0.99
2018-12-15T12:55:51.064Z,-1.05
2018-12-15T12:56:59.060Z,-1.05
2018-12-15T12:58:07.118Z,-1.30
2018-12-15T12:59:15.185Z,-1.25
2018-12-15T13:00:23.214Z,-1.31
2018-12-15T13:01:31.202Z,-1.20
2018-12-15T13:02:39.240Z,-0.99
2018-12-15T13:03:47.311Z,-1.02
2018-12-15T13:04:55.591Z,-0.94
2018-12-15T13:06:03.502Z,-0.98
2018-12-15T13:07:11.509Z,-1.13
2018-12-15T13:08:19.627Z,-1.31
2018-12-15T13:09:27.549Z,-1.28
2018-12-15T13:10:35.622Z,-1.13
2018-12-15T13:11:43.699Z,-1.13
2018-12-15T13:12:51.728Z,-1.33
2018-12-15T13:13:59.866Z,-1.31
2018-12-15T13:15:08.079Z,-1.23
2018-12-15T13:16:16.130Z,-1.13
2018-12-15T13:17:23.928Z,-0.97
2018-12-15T13:18:31.993Z,-0.99
2018-12-15T13:19:40.046Z,-0.86
2018-12-15T13:20:48.195Z,-0.82
2018-12-15T13:21:56.197Z,-0.83
2018-12-15T13:23:04.206Z,-0.76
2018-12-15T13:24:12.602Z,-0.67
2018-12-15T13:25:20.505Z,-0.72
2018-12-15T13:26:28.356Z,-0.69
2018-12-15T13:27:36.397Z,-0.80
2018-12-15T13:28:44.512Z,-0.99
2018-12-15T13:29:52.622Z,-0.97
2018-12-15T13:31:00.566Z,-1.10
2018-12-15T13:32:08.623Z,-1.13
2018-12-15T13:33:16.795Z,-1.05
2018-12-15T13:34:25.144Z,-1.23
2018-12-15T13:35:32.782Z,-1.22
2018-12-15T13:36:40.854Z,-1.27
2018-12-15T13:37:49.525Z,-1.10
2018-12-15T13:38:57.140Z,-1.16
2018-12-15T13:40:05.039Z,-1.20
2018-12-15T13:41:13.050Z,-1.23
2018-12-15T13:42:21.090Z,-1.23
2018-12-15T13:43:29.149Z,-1.30
2018-12-15T13:44:37.484Z,-1.40
2018-12-15T13:45:45.231Z,-1.43
2018-12-15T13:46:53.319Z,-1.40
2018-12-15T13:48:01.345Z,-1.43
2018-12-15T13:49:09.519Z,-1.52
2018-12-15T13:50:17.591Z,-1.48
2018-12-15T13:51:25.507Z,-1.49
2018-12-15T13:52:33.567Z,-1.43
2018-12-15T13:53:41.613Z,-1.46
2018-12-15T13:54:49.813Z,-1.55
2018-12-15T13:55:57.736Z,-1.49
2018-12-15T13:57:05.951Z,-1.54
2018-12-15T13:58:13.917Z,-1.49
2018-12-15T13:59:21.880Z,-1.52
2018-12-15T14:00:30.210Z,-1.49
2018-12-15T14:01:38.001Z,-1.56
2018-12-15T14:02:46.024Z,-1.72
2018-12-15T14:03:54.142Z,-1.59
2018-12-15T14:05:02.149Z,-1.54
2018-12-15T14:06:10.438Z,-1.64
2018-12-15T14:07:18.433Z,-1.73
2018-12-15T14:08:26.560Z,-1.55
2018-12-15T14:09:34.467Z,-1.55
2018-12-15T14:10:42.407Z,-1.54
2018-12-15T14:11:50.454Z,-1.54
2018-12-15T14:12:58.515Z,-1.55
2018-12-15T14:14:06.714Z,-1.72
2018-12-15T14:15:14.617Z,-1.73
2018-12-15T14:16:22.662Z,-1.80
2018-12-15T14:17:30.712Z,-1.88
2018-12-15T14:18:38.758Z,-1.90
2018-12-15T14:19:46.830Z,-1.80
2018-12-15T14:20:54.876Z,-1.84
2018-12-15T14:22:02.935Z,-1.80
2018-12-15T14:23:10.959Z,-1.79
2018-12-15T14:24:19.042Z,-1.82
2018-12-15T14:25:27.104Z,-1.74
2018-12-15T14:26:35.136Z,-1.91
2018-12-15T14:27:43.186Z,-1.92
2018-12-15T14:28:51.250Z,-2.06
2018-12-15T14:29:59.300Z,-2.16
2018-12-15T14:31:07.336Z,-2.15
2018-12-15T14:32:15.419Z,-2.29
2018-12-15T14:33:23.444Z,-2.29
2018-12-15T14:34:31.497Z,-2.26
2018-12-15T14:35:39.535Z,-2.34